Time,TemperatureF,DewpointF,PressureIn,WindDirection,WindDirectionDegrees,WindSpeedMPH,WindSpeedGustMPH,Humidity,HourlyPrecipIn,Conditions,Clouds,dailyrainin,SoftwareType,DateUTC
2013-03-23 00:02:00,48.0,45.0,29.94,SW,229,0.0,5.0,91,0.00,,,0.00,,2013-03-23 05:02:00,
2013-03-23 00:12:00,48.0,45.0,29.94,SW,229,0.0,5.0,91,0.00,,,0.00,,2013-03-23 05:12:00,
2013-03-23 00:22:00,48.0,45.0,29.93,SSW,210,0.0,6.0,89,0.00,,,0.00,,2013-03-23 05:22:00,
2013-03-23 00:32:00,49.0,45.0,29.93,SSW,201,0.0,4.0,87,0.00,,,0.20,,2013-03-23 05:32:00,
2013-03-23 00:42:00,49.0,45.0,29.93,SSW,201,0.0,4.0,87,0.00,,,0.20,,2013-03-23 05:42:00,
2013-03-23 00:52:00,49.0,46.0,29.93,WSW,238,3.0,5.0,88,0.00,,,0.20,,2013-03-23 05:52:00,
2013-03-23 01:02:00,49.0,45.0,29.92,WSW,245,3.0,7.0,85,0.00,,,0.20,,2013-03-23 06:02:00,
2013-03-23 01:12:00,49.0,45.0,29.92,WSW,245,3.0,7.0,85,0.00,,,0.20,,2013-03-23 06:12:00,
2013-03-23 01:22:00,49.0,45.0,29.92,SW,214,0.0,4.0,85,0.00,,,0.20,,2013-03-23 06:22:00,
2013-03-23 01:32:00,49.0,44.0,29.91,WSW,239,1.0,4.0,84,0.00,,,0.20,,2013-03-23 06:32:00,
2013-03-23 01:42:00,49.0,44.0,29.91,WSW,239,1.0,4.0,84,0.00,,,0.20,,2013-03-23 06:42:00,
2013-03-23 01:52:00,49.0,44.0,29.91,SW,221,2.0,6.0,83,0.00,,,0.20,,2013-03-23 06:52:00,
2013-03-23 02:02:00,50.0,45.0,29.91,SW,217,0.0,5.0,82,0.00,,,0.20,,2013-03-23 07:02:00,
2013-03-23 02:12:00,50.0,45.0,29.91,SW,217,0.0,5.0,82,0.00,,,0.20,,2013-03-23 07:12:00,
2013-03-23 02:22:00,50.0,45.0,29.91,SSW,197,1.0,3.0,83,0.00,,,0.20,,2013-03-23 07:22:00,
2013-03-23 02:32:00,50.0,44.0,29.90,SW,215,3.0,4.0,81,0.00,,,0.20,,2013-03-23 07:32:00,
2013-03-23 02:42:00,50.0,44.0,29.90,SW,215,3.0,4.0,81,0.00,,,0.20,,2013-03-23 07:42:00,
2013-03-23 02:52:00,50.0,45.0,29.90,SW,214,0.0,4.0,82,0.00,,,0.20,,2013-03-23 07:52:00,
2013-03-23 03:02:00,50.0,44.0,29.89,WSW,238,3.0,4.0,81,0.00,,,0.20,,2013-03-23 08:02:00,
2013-03-23 03:12:00,50.0,44.0,29.89,WSW,238,3.0,4.0,81,0.00,,,0.20,,2013-03-23 08:12:00,
2013-03-23 03:22:00,50.0,45.0,29.88,WSW,238,2.0,4.0,84,0.00,,,0.20,,2013-03-23 08:22:00,
2013-03-23 03:32:00,50.0,45.0,29.88,SW,229,0.0,3.0,83,0.00,,,0.20,,2013-03-23 08:32:00,
2013-03-23 03:42:00,50.0,45.0,29.88,SW,229,0.0,3.0,83,0.00,,,0.20,,2013-03-23 08:42:00,
2013-03-23 03:52:00,50.0,46.0,29.86,WSW,240,1.0,4.0,86,0.01,,,0.20,,2013-03-23 08:52:00,
2013-03-23 04:02:00,48.0,47.0,29.86,SW,217,0.0,4.0,95,0.06,,,0.20,,2013-03-23 09:02:00,
2013-03-23 04:12:00,48.0,47.0,29.86,SW,217,0.0,4.0,95,0.06,,,0.20,,2013-03-23 09:12:00,
2013-03-23 04:22:00,48.0,47.0,29.87,SW,226,0.0,3.0,97,0.13,,,0.20,,2013-03-23 09:22:00,
2013-03-23 04:33:00,47.0,47.0,29.89,SW,217,0.0,2.0,99,0.40,,,0.20,,2013-03-23 09:33:00,
2013-03-23 04:42:00,47.0,47.0,29.89,SW,217,0.0,2.0,99,0.40,,,0.20,,2013-03-23 09:42:00,
2013-03-23 04:53:00,47.0,47.0,29.89,SSW,204,1.0,4.0,100,0.44,,,0.20,,2013-03-23 09:53:00,
2013-03-23 05:03:00,47.0,47.0,29.88,SSW,200,1.0,5.0,100,0.51,,,0.20,,2013-03-23 10:03:00,
2013-03-23 05:12:00,47.0,47.0,29.88,SSW,200,1.0,5.0,100,0.51,,,0.20,,2013-03-23 10:12:00,
2013-03-23 05:23:00,47.0,47.0,29.87,SSW,201,1.0,4.0,100,0.47,,,0.20,,2013-03-23 10:23:00,
2013-03-23 05:33:00,46.0,46.0,29.87,WSW,239,6.0,9.0,100,0.81,,,0.20,,2013-03-23 10:33:00,
2013-03-23 05:42:00,46.0,46.0,29.87,WSW,239,6.0,9.0,100,0.81,,,0.20,,2013-03-23 10:42:00,
2013-03-23 05:52:00,46.0,46.0,29.86,WSW,243,2.0,8.0,100,0.77,,,0.20,,2013-03-23 10:52:00,
2013-03-23 06:03:00,46.0,46.0,29.89,SW,231,3.0,7.0,100,0.65,,,0.20,,2013-03-23 11:03:00,
2013-03-23 06:12:00,46.0,46.0,29.89,SW,231,3.0,7.0,100,0.65,,,0.20,,2013-03-23 11:12:00,
2013-03-23 06:22:00,47.0,47.0,29.89,WSW,240,4.0,7.0,100,0.62,,,0.20,,2013-03-23 11:22:00,
2013-03-23 06:32:00,47.0,47.0,29.88,SW,217,0.0,2.0,100,0.01,,,0.20,,2013-03-23 11:32:00,
2013-03-23 06:42:00,47.0,47.0,29.89,SW,225,3.0,4.0,100,0.00,,,0.20,,2013-03-23 11:42:00,
2013-03-23 06:51:00,47.0,47.0,29.89,SW,225,3.0,4.0,100,0.00,,,0.20,,2013-03-23 11:51:00,
2013-03-23 07:02:00,48.0,48.0,29.91,SW,224,3.0,6.0,100,0.04,,,0.20,,2013-03-23 12:02:00,
2013-03-23 07:12:00,48.0,48.0,29.91,SW,224,3.0,6.0,100,0.04,,,0.20,,2013-03-23 12:12:00,
2013-03-23 07:22:00,48.0,48.0,29.92,WSW,248,1.0,5.0,100,0.20,,,0.20,,2013-03-23 12:22:00,
2013-03-23 07:33:00,49.0,49.0,29.93,North,350,3.0,9.0,100,0.57,,,0.20,,2013-03-23 12:33:00,
2013-03-23 07:42:00,49.0,49.0,29.93,North,350,3.0,9.0,100,0.57,,,0.20,,2013-03-23 12:42:00,
2013-03-23 07:52:00,49.0,49.0,29.93,WNW,290,0.0,4.0,100,0.61,,,0.20,,2013-03-23 12:52:00,
2013-03-23 08:03:00,48.0,48.0,29.92,NE,39,0.0,2.0,100,0.69,,,0.20,,2013-03-23 13:03:00,
2013-03-23 08:12:00,48.0,48.0,29.92,NE,39,0.0,2.0,100,0.69,,,0.20,,2013-03-23 13:12:00,
2013-03-23 08:22:00,48.0,48.0,29.91,NE,39,0.0,0.0,100,0.53,,,0.20,,2013-03-23 13:22:00,
2013-03-23 08:32:00,49.0,49.0,29.91,NE,39,0.0,0.0,100,0.17,,,0.20,,2013-03-23 13:32:00,
2013-03-23 08:42:00,49.0,49.0,29.91,NE,39,0.0,0.0,100,0.17,,,0.20,,2013-03-23 13:42:00,
2013-03-23 08:52:00,48.0,48.0,29.91,NE,39,0.0,0.0,100,0.13,,,0.20,,2013-03-23 13:52:00,
2013-03-23 09:03:00,49.0,49.0,29.90,NE,37,2.0,5.0,100,0.01,,,0.20,,2013-03-23 14:03:00,
2013-03-23 09:12:00,49.0,49.0,29.90,NE,37,2.0,5.0,100,0.01,,,0.20,,2013-03-23 14:12:00,
2013-03-23 09:22:00,49.0,49.0,29.90,NNE,30,0.0,2.0,100,0.01,,,0.20,,2013-03-23 14:22:00,
2013-03-23 09:32:00,50.0,50.0,29.90,NNE,32,2.0,5.0,100,0.00,,,0.20,,2013-03-23 14:32:00,
2013-03-23 09:42:00,50.0,50.0,29.90,NNE,32,2.0,5.0,100,0.00,,,0.20,,2013-03-23 14:42:00,
2013-03-23 09:52:00,50.0,50.0,29.90,NE,34,3.0,4.0,100,0.00,,,0.20,,2013-03-23 14:52:00,
2013-03-23 10:03:00,50.0,50.0,29.90,NNE,24,3.0,5.0,100,0.00,,,0.20,,2013-03-23 15:03:00,
2013-03-23 10:12:00,50.0,50.0,29.90,NNE,24,3.0,5.0,100,0.00,,,0.20,,2013-03-23 15:12:00,
2013-03-23 10:22:00,50.0,50.0,29.90,NNE,21,2.0,4.0,100,0.00,,,0.20,,2013-03-23 15:22:00,
2013-03-23 10:33:00,51.0,51.0,29.90,NNE,27,0.0,4.0,100,0.00,,,0.20,,2013-03-23 15:33:00,
2013-03-23 10:43:00,51.0,51.0,29.90,NNE,27,0.0,4.0,100,0.00,,,0.20,,2013-03-23 15:43:00,
2013-03-23 10:52:00,51.0,51.0,29.90,NNE,18,0.0,1.0,100,0.00,,,0.20,,2013-03-23 15:52:00,
2013-03-23 11:03:00,51.0,51.0,29.90,North,3,0.0,0.0,100,0.00,,,0.20,,2013-03-23 16:03:00,
2013-03-23 11:12:00,51.0,51.0,29.90,North,3,0.0,0.0,100,0.00,,,0.20,,2013-03-23 16:12:00,
2013-03-23 11:23:00,52.0,52.0,29.89,North,3,0.0,0.0,100,0.00,,,0.20,,2013-03-23 16:23:00,
2013-03-23 11:32:00,53.0,53.0,29.89,NNE,28,1.0,2.0,100,0.00,,,0.20,,2013-03-23 16:32:00,
2013-03-23 11:43:00,53.0,53.0,29.89,NNE,28,1.0,2.0,100,0.00,,,0.20,,2013-03-23 16:43:00,
2013-03-23 11:53:00,53.0,53.0,29.89,NNE,15,0.0,2.0,100,0.00,,,0.20,,2013-03-23 16:53:00,
2013-03-23 12:02:00,53.0,53.0,29.88,NNE,30,3.0,5.0,99,0.00,,,0.20,,2013-03-23 17:02:00,
2013-03-23 12:12:00,54.0,54.0,29.88,NNE,18,1.0,4.0,99,0.00,,,0.20,,2013-03-23 17:12:00,
2013-03-23 12:22:00,54.0,54.0,29.88,NNE,18,1.0,4.0,99,0.00,,,0.20,,2013-03-23 17:22:00,
2013-03-23 12:32:00,55.0,54.0,29.87,NNE,25,1.0,5.0,96,0.00,,,0.20,,2013-03-23 17:32:00,
2013-03-23 12:42:00,55.0,54.0,29.87,NNE,25,1.0,5.0,96,0.00,,,0.20,,2013-03-23 17:42:00,
2013-03-23 12:52:00,56.0,55.0,29.87,NNE,21,2.0,4.0,95,0.00,,,0.20,,2013-03-23 17:52:00,
2013-03-23 13:03:00,56.0,54.0,29.87,NW,318,2.0,3.0,94,0.00,,,0.20,,2013-03-23 18:03:00,
2013-03-23 13:12:00,56.0,54.0,29.87,NW,318,2.0,3.0,94,0.00,,,0.20,,2013-03-23 18:12:00,
2013-03-23 13:22:00,56.0,55.0,29.88,WNW,300,0.0,3.0,95,0.00,,,0.20,,2013-03-23 18:22:00,
2013-03-23 13:32:00,56.0,55.0,29.86,WNW,297,1.0,5.0,96,0.00,,,0.20,,2013-03-23 18:32:00,
2013-03-23 13:42:00,56.0,55.0,29.86,WNW,297,1.0,5.0,96,0.00,,,0.20,,2013-03-23 18:42:00,
2013-03-23 13:52:00,56.0,55.0,29.86,WNW,290,2.0,6.0,96,0.00,,,0.20,,2013-03-23 18:52:00,
2013-03-23 14:03:00,56.0,55.0,29.84,NW,308,1.0,5.0,96,0.00,,,0.20,,2013-03-23 19:03:00,
2013-03-23 14:12:00,56.0,55.0,29.84,NW,308,1.0,5.0,96,0.00,,,0.20,,2013-03-23 19:12:00,
2013-03-23 14:22:00,56.0,55.0,29.83,NW,308,2.0,3.0,96,0.00,,,0.20,,2013-03-23 19:22:00,
2013-03-23 14:32:00,57.0,56.0,29.82,NW,314,2.0,4.0,96,0.00,,,0.20,,2013-03-23 19:32:00,
2013-03-23 14:42:00,57.0,56.0,29.82,NW,314,2.0,4.0,96,0.00,,,0.20,,2013-03-23 19:42:00,
2013-03-23 14:52:00,57.0,56.0,29.82,WNW,291,1.0,3.0,95,0.00,,,0.20,,2013-03-23 19:52:00,
2013-03-23 15:02:00,58.0,57.0,29.83,WNW,288,0.0,4.0,95,0.00,,,0.20,,2013-03-23 20:02:00,
2013-03-23 15:12:00,58.0,57.0,29.83,WNW,288,0.0,4.0,95,0.00,,,0.20,,2013-03-23 20:12:00,
2013-03-23 15:22:00,58.0,57.0,29.83,West,274,0.0,5.0,95,0.00,,,0.20,,2013-03-23 20:22:00,
2013-03-23 15:32:00,58.0,56.0,29.81,WNW,285,0.0,0.0,93,0.00,,,0.20,,2013-03-23 20:32:00,
2013-03-23 15:42:00,58.0,56.0,29.81,WNW,285,0.0,0.0,93,0.00,,,0.20,,2013-03-23 20:42:00,
2013-03-23 15:52:00,58.0,56.0,29.78,NW,305,3.0,4.0,94,0.00,,,0.20,,2013-03-23 20:52:00,
2013-03-23 16:02:00,59.0,57.0,29.78,WNW,300,3.0,5.0,93,0.00,,,0.20,,2013-03-23 21:02:00,
2013-03-23 16:12:00,59.0,57.0,29.78,WNW,300,3.0,5.0,93,0.00,,,0.20,,2013-03-23 21:12:00,
2013-03-23 16:22:00,59.0,57.0,29.78,WSW,249,2.0,5.0,94,0.00,,,0.20,,2013-03-23 21:22:00,
2013-03-23 16:33:00,58.0,57.0,29.78,West,260,3.0,8.0,95,0.00,,,0.20,,2013-03-23 21:33:00,
2013-03-23 16:43:00,58.0,57.0,29.78,West,260,3.0,8.0,95,0.00,,,0.20,,2013-03-23 21:43:00,
2013-03-23 16:53:00,58.0,57.0,29.77,WSW,249,3.0,6.0,96,0.00,,,0.20,,2013-03-23 21:53:00,
2013-03-23 17:03:00,58.0,57.0,29.77,WSW,256,4.0,6.0,95,0.00,,,0.20,,2013-03-23 22:03:00,
2013-03-23 17:12:00,58.0,57.0,29.77,WSW,256,4.0,6.0,95,0.00,,,0.20,,2013-03-23 22:12:00,
2013-03-23 17:23:00,58.0,57.0,29.78,West,259,5.0,6.0,95,0.00,,,0.20,,2013-03-23 22:23:00,
2013-03-23 17:33:00,58.0,57.0,29.78,WSW,245,1.0,6.0,96,0.00,,,0.20,,2013-03-23 22:33:00,
2013-03-23 17:42:00,58.0,57.0,29.78,WSW,245,1.0,6.0,96,0.00,,,0.20,,2013-03-23 22:42:00,
2013-03-23 17:52:00,58.0,57.0,29.78,WSW,239,3.0,6.0,96,0.00,,,0.20,,2013-03-23 22:52:00,
2013-03-23 18:02:00,58.0,57.0,29.76,WSW,239,1.0,3.0,97,0.00,,,0.20,,2013-03-23 23:02:00,
2013-03-23 18:12:00,58.0,57.0,29.76,WSW,239,1.0,3.0,97,0.00,,,0.20,,2013-03-23 23:12:00,
2013-03-23 18:22:00,58.0,57.0,29.75,WSW,252,2.0,6.0,97,0.00,,,0.20,,2013-03-23 23:22:00,
2013-03-23 18:33:00,58.0,57.0,29.73,WSW,242,1.0,6.0,96,0.00,,,0.20,,2013-03-23 23:33:00,
2013-03-23 18:42:00,58.0,57.0,29.73,WSW,242,1.0,6.0,96,0.00,,,0.20,,2013-03-23 23:42:00,
2013-03-23 18:52:00,58.0,57.0,29.73,SW,233,4.0,6.0,96,0.00,,,0.20,,2013-03-23 23:52:00,
2013-03-23 19:02:00,58.0,57.0,29.74,West,267,4.0,9.0,95,0.00,,,0.20,,2013-03-24 00:02:00,
2013-03-23 19:12:00,58.0,57.0,29.74,West,267,4.0,9.0,95,0.00,,,0.20,,2013-03-24 00:12:00,
2013-03-23 19:22:00,58.0,57.0,29.74,West,273,3.0,8.0,95,0.00,,,0.20,,2013-03-24 00:22:00,
2013-03-23 19:32:00,58.0,56.0,29.76,West,263,3.0,8.0,94,0.00,,,0.20,,2013-03-24 00:32:00,
2013-03-23 19:42:00,58.0,56.0,29.76,West,263,3.0,8.0,94,0.00,,,0.20,,2013-03-24 00:42:00,
2013-03-23 19:52:00,58.0,56.0,29.73,SW,224,2.0,8.0,94,0.00,,,0.20,,2013-03-24 00:52:00,
2013-03-23 20:02:00,57.0,55.0,29.72,WSW,238,4.0,8.0,94,0.00,,,0.20,,2013-03-24 01:02:00,
2013-03-23 20:12:00,57.0,55.0,29.72,WSW,238,4.0,8.0,94,0.00,,,0.20,,2013-03-24 01:12:00,
2013-03-23 20:22:00,57.0,55.0,29.69,SW,231,4.0,11.0,94,0.00,,,0.20,,2013-03-24 01:22:00,
2013-03-23 20:32:00,56.0,55.0,29.66,WNW,291,7.0,22.0,96,0.00,,,0.20,,2013-03-24 01:32:00,
2013-03-23 20:42:00,56.0,55.0,29.66,WNW,291,7.0,22.0,96,0.00,,,0.20,,2013-03-24 01:42:00,
2013-03-23 20:52:00,56.0,55.0,29.69,WSW,243,6.0,16.0,96,0.00,,,0.20,,2013-03-24 01:52:00,
2013-03-23 21:03:00,56.0,55.0,29.71,WSW,239,3.0,7.0,96,0.00,,,0.20,,2013-03-24 02:03:00,
2013-03-23 21:12:00,56.0,55.0,29.71,WSW,239,3.0,7.0,96,0.00,,,0.20,,2013-03-24 02:12:00,
2013-03-23 21:22:00,56.0,55.0,29.71,WSW,238,4.0,5.0,97,0.01,,,0.20,,2013-03-24 02:22:00,
2013-03-23 21:32:00,55.0,55.0,29.68,WSW,240,2.0,6.0,100,0.01,,,0.20,,2013-03-24 02:32:00,
2013-03-23 21:42:00,55.0,55.0,29.68,WSW,240,2.0,6.0,100,0.01,,,0.20,,2013-03-24 02:42:00,
2013-03-23 21:52:00,55.0,55.0,29.69,WSW,240,2.0,7.0,100,0.02,,,0.20,,2013-03-24 02:52:00,
2013-03-23 22:02:00,55.0,55.0,29.65,WSW,248,3.0,7.0,100,0.05,,,0.20,,2013-03-24 03:02:00,
2013-03-23 22:12:00,55.0,55.0,29.65,WSW,248,3.0,7.0,100,0.05,,,0.20,,2013-03-24 03:12:00,
2013-03-23 22:22:00,55.0,55.0,29.67,SW,235,2.0,3.0,100,0.04,,,0.20,,2013-03-24 03:22:00,
2013-03-23 22:33:00,55.0,55.0,29.64,WSW,245,6.0,8.0,100,0.04,,,0.20,,2013-03-24 03:33:00,
2013-03-23 22:42:00,55.0,55.0,29.64,WSW,245,6.0,8.0,100,0.04,,,0.20,,2013-03-24 03:42:00,
2013-03-23 22:53:00,56.0,56.0,29.65,WSW,239,1.0,10.0,100,0.03,,,0.20,,2013-03-24 03:53:00,
2013-03-23 23:02:00,56.0,56.0,29.64,SW,233,7.0,14.0,100,0.00,,,0.20,,2013-03-24 04:02:00,
2013-03-23 23:12:00,56.0,56.0,29.64,SW,233,7.0,14.0,100,0.00,,,0.20,,2013-03-24 04:12:00,
2013-03-23 23:22:00,56.0,56.0,29.68,WSW,246,5.0,11.0,100,0.01,,,0.20,,2013-03-24 04:22:00,
2013-03-23 23:32:00,57.0,57.0,29.69,West,259,2.0,11.0,99,0.02,,,0.20,,2013-03-24 04:32:00,
2013-03-23 23:42:00,57.0,57.0,29.69,West,259,2.0,11.0,99,0.02,,,0.20,,2013-03-24 04:42:00,
2013-03-23 23:53:00,55.0,55.0,29.72,South,172,6.0,19.0,100,0.45,,,0.20,,2013-03-24 04:53:00,